createdAt,value
2022-08-17T00:00:43.147Z,23.50
2022-08-17T00:03:17.332Z,23.50
2022-08-17T00:05:50.369Z,23.50
2022-08-17T00:08:23.521Z,23.50
2022-08-17T00:10:54.990Z,23.50
2022-08-17T00:13:26.219Z,23.50
2022-08-17T00:16:00.239Z,23.40
2022-08-17T00:19:01.222Z,23.40
2022-08-17T00:21:25.145Z,23.50
2022-08-17T00:23:55.625Z,23.40
2022-08-17T00:26:45.238Z,23.40
2022-08-17T00:29:19.985Z,23.40
2022-08-17T00:31:50.290Z,23.40
2022-08-17T00:34:18.968Z,23.40
2022-08-17T00:36:48.820Z,23.40
2022-08-17T00:39:18.701Z,23.40
2022-08-17T00:41:48.604Z,23.40
2022-08-17T00:44:36.881Z,23.40
2022-08-17T00:47:05.252Z,23.40
2022-08-17T00:49:33.378Z,23.40
2022-08-17T00:52:28.540Z,23.40
2022-08-17T00:55:03.393Z,23.30
2022-08-17T00:57:36.446Z,23.30
2022-08-17T01:00:29.071Z,23.30
2022-08-17T01:03:06.753Z,23.30
2022-08-17T01:05:38.780Z,23.30
2022-08-17T01:08:15.314Z,23.30
2022-08-17T01:10:58.691Z,23.30
2022-08-17T01:13:40.792Z,23.20
2022-08-17T01:16:16.999Z,23.20
2022-08-17T01:18:48.072Z,23.10
2022-08-17T01:21:24.934Z,23.10
2022-08-17T01:23:54.366Z,23.00
2022-08-17T01:26:24.046Z,23.00
2022-08-17T01:28:54.652Z,22.90
2022-08-17T01:31:28.292Z,22.80
2022-08-17T01:34:02.589Z,22.80
2022-08-17T01:36:31.411Z,22.80
2022-08-17T01:39:05.739Z,22.70
2022-08-17T01:44:42.768Z,22.50
2022-08-17T01:47:11.041Z,22.40
2022-08-17T01:49:42.628Z,22.30
2022-08-17T01:52:12.656Z,22.20
2022-08-17T01:54:47.566Z,22.10
2022-08-17T01:57:16.219Z,22.00
2022-08-17T01:59:49.954Z,21.90
2022-08-17T02:02:30.302Z,21.80
2022-08-17T02:05:05.846Z,21.80
2022-08-17T02:07:47.972Z,21.70
2022-08-17T02:10:33.847Z,21.60
2022-08-17T02:13:04.036Z,21.60
2022-08-17T02:15:33.571Z,21.50
2022-08-17T02:18:19.888Z,21.50
2022-08-17T02:20:52.514Z,21.40
2022-08-17T02:23:31.562Z,21.30
2022-08-17T02:26:06.510Z,21.30
2022-08-17T02:28:36.191Z,21.30
2022-08-17T02:31:15.315Z,21.20
2022-08-17T02:34:03.338Z,21.20
2022-08-17T02:36:52.506Z,21.20
2022-08-17T02:39:24.877Z,21.20
2022-08-17T02:42:02.585Z,21.20
2022-08-17T02:44:39.306Z,21.10
2022-08-17T02:47:11.023Z,21.20
2022-08-17T02:49:54.059Z,21.20
2022-08-17T02:52:43.388Z,21.20
2022-08-17T02:55:14.701Z,21.10
2022-08-17T02:58:07.641Z,21.10
2022-08-17T03:00:40.993Z,21.10
2022-08-17T03:03:15.118Z,21.10
2022-08-17T03:05:44.272Z,21.10
2022-08-17T03:08:19.459Z,21.00
2022-08-17T03:11:12.169Z,21.10
2022-08-17T03:13:59.814Z,21.10
2022-08-17T03:16:29.382Z,21.10
2022-08-17T03:19:01.121Z,21.10
2022-08-17T03:21:30.779Z,21.10
2022-08-17T03:23:59.158Z,21.20
2022-08-17T03:26:54.869Z,21.20
2022-08-17T03:29:45.956Z,21.10
2022-08-17T03:32:18.826Z,21.10
2022-08-17T03:35:08.898Z,21.10
2022-08-17T03:37:37.559Z,21.10
2022-08-17T03:40:08.363Z,21.10
2022-08-17T03:42:39.741Z,21.10
2022-08-17T03:45:18.065Z,21.20
2022-08-17T03:48:04.983Z,21.10
2022-08-17T03:50:51.180Z,21.20
2022-08-17T03:57:01.439Z,21.20
2022-08-17T03:59:53.965Z,21.20
2022-08-17T04:02:27.147Z,21.20
2022-08-17T04:07:42.241Z,21.20
2022-08-17T04:10:13.543Z,21.10
2022-08-17T04:12:51.841Z,21.20
2022-08-17T04:15:41.258Z,21.10
2022-08-17T04:21:18.134Z,21.10
2022-08-17T04:23:47.170Z,21.10
2022-08-17T04:26:52.877Z,21.10
2022-08-17T04:29:07.717Z,21.10
2022-08-17T04:31:58.055Z,21.10
2022-08-17T04:34:37.594Z,21.10
2022-08-17T04:37:28.197Z,21.10
2022-08-17T04:40:11.605Z,21.10
2022-08-17T04:42:45.011Z,21.10
2022-08-17T04:45:13.112Z,21.10
2022-08-17T04:47:42.384Z,21.10
2022-08-17T04:50:16.235Z,21.10
2022-08-17T04:52:47.792Z,21.10
2022-08-17T04:55:17.174Z,21.10
2022-08-17T04:57:45.357Z,21.10
2022-08-17T05:00:15.800Z,21.10
2022-08-17T05:02:49.763Z,21.10
2022-08-17T05:05:22.144Z,21.10
2022-08-17T05:07:56.229Z,21.10
2022-08-17T05:10:24.569Z,21.10
2022-08-17T05:12:59.263Z,21.10
2022-08-17T05:15:33.172Z,21.10
2022-08-17T05:18:04.320Z,21.10
2022-08-17T05:20:35.521Z,21.10
2022-08-17T05:23:07.087Z,21.10
2022-08-17T05:25:37.584Z,21.10
2022-08-17T05:28:06.448Z,21.10
2022-08-17T05:30:35.075Z,21.20
2022-08-17T05:33:07.141Z,21.20
2022-08-17T05:35:38.651Z,21.20
2022-08-17T05:38:08.081Z,21.20
2022-08-17T05:40:36.459Z,21.20
2022-08-17T05:43:10.138Z,21.20
2022-08-17T05:45:54.533Z,21.20
2022-08-17T05:48:35.813Z,21.20
2022-08-17T05:51:33.434Z,21.20
2022-08-17T05:54:13.578Z,21.20
2022-08-17T05:57:01.271Z,21.20
2022-08-17T05:59:37.381Z,21.20
2022-08-17T06:02:16.026Z,21.20
2022-08-17T06:05:01.795Z,21.20
2022-08-17T06:07:37.870Z,21.20
2022-08-17T06:10:15.045Z,21.20
2022-08-17T06:12:53.714Z,21.20
2022-08-17T06:15:32.202Z,21.20
2022-08-17T06:18:03.052Z,21.20
2022-08-17T06:20:36.724Z,21.20
2022-08-17T06:23:10.533Z,21.20
2022-08-17T06:25:43.612Z,21.20
2022-08-17T06:28:22.346Z,21.20
2022-08-17T06:31:00.706Z,21.20
2022-08-17T06:33:34.255Z,21.30
2022-08-17T06:36:11.383Z,21.20
2022-08-17T06:38:53.245Z,21.30
2022-08-17T06:41:26.835Z,21.30
2022-08-17T06:44:07.464Z,21.30
2022-08-17T06:46:39.517Z,21.30
2022-08-17T06:49:16.982Z,21.30
2022-08-17T06:51:50.579Z,21.30
2022-08-17T06:54:27.191Z,21.40
2022-08-17T06:57:01.630Z,21.40
2022-08-17T06:59:55.515Z,21.40
2022-08-17T07:02:52.317Z,21.40
2022-08-17T07:05:23.413Z,21.40
2022-08-17T07:08:04.045Z,21.40
2022-08-17T07:10:46.596Z,21.40
2022-08-17T07:13:38.555Z,21.40
2022-08-17T07:16:15.102Z,21.40
2022-08-17T07:18:43.875Z,21.40
2022-08-17T07:21:26.869Z,21.40
2022-08-17T07:24:11.354Z,21.40
2022-08-17T07:27:54.236Z,21.40
2022-08-17T07:30:37.159Z,21.50
2022-08-17T07:42:03.447Z,21.40
2022-08-17T08:12:37.708Z,21.40
2022-08-17T08:15:15.461Z,21.40
2022-08-17T09:02:52.235Z,21.40
2022-08-17T09:05:33.267Z,21.40
2022-08-17T09:08:10.618Z,21.30
2022-08-17T09:10:57.049Z,21.30
2022-08-17T09:13:32.088Z,21.30
2022-08-17T09:16:06.029Z,21.20
2022-08-17T09:19:02.448Z,21.20
2022-08-17T09:21:33.637Z,21.20
2022-08-17T09:24:07.461Z,21.20
2022-08-17T09:26:41.021Z,21.20
2022-08-17T09:29:15.484Z,21.20
2022-08-17T09:31:53.419Z,21.20
2022-08-17T09:34:34.461Z,21.20
2022-08-17T09:37:17.489Z,21.20
2022-08-17T09:39:54.831Z,21.20
2022-08-17T09:42:29.994Z,21.20
2022-08-17T09:45:22.995Z,21.20
2022-08-17T09:47:58.283Z,21.20
2022-08-17T09:51:03.368Z,21.30
2022-08-17T09:53:24.990Z,21.30
2022-08-17T09:56:08.303Z,21.30
2022-08-17T09:58:48.307Z,21.30
2022-08-17T10:01:25.587Z,21.30
2022-08-17T10:04:07.323Z,21.30
2022-08-17T10:06:53.302Z,21.30
2022-08-17T10:09:39.477Z,21.40
2022-08-17T10:12:20.387Z,21.40
2022-08-17T10:15:09.536Z,21.40
2022-08-17T10:17:44.867Z,21.40
2022-08-17T10:20:18.314Z,21.40
2022-08-17T10:23:08.872Z,21.40
2022-08-17T10:26:08.525Z,21.40
2022-08-17T10:28:46.321Z,21.40
2022-08-17T10:31:34.605Z,21.40
2022-08-17T10:34:38.831Z,21.40
2022-08-17T10:37:23.668Z,21.40
2022-08-17T10:40:02.570Z,21.30
2022-08-17T10:42:36.210Z,21.30
2022-08-17T10:45:08.385Z,21.30
2022-08-17T10:48:04.833Z,21.30
2022-08-17T10:50:50.334Z,21.30
2022-08-17T10:53:56.999Z,21.30
2022-08-17T10:56:41.096Z,21.20
2022-08-17T10:59:10.942Z,21.30
2022-08-17T11:02:13.137Z,21.30
2022-08-17T11:04:54.615Z,21.30
2022-08-17T11:07:39.800Z,21.30
2022-08-17T11:10:42.138Z,21.40
2022-08-17T11:13:23.296Z,21.40
2022-08-17T11:16:07.785Z,21.40
2022-08-17T11:18:54.672Z,21.50
2022-08-17T11:22:34.436Z,21.60
2022-08-17T11:25:13.646Z,21.60
2022-08-17T11:27:42.338Z,21.70
2022-08-17T11:30:14.868Z,21.70
2022-08-17T11:32:52.932Z,21.80
2022-08-17T11:35:36.195Z,21.80
2022-08-17T11:38:17.006Z,21.90
2022-08-17T11:41:04.818Z,21.90
2022-08-17T11:43:57.306Z,21.80
2022-08-17T11:46:57.877Z,21.90
2022-08-17T11:50:11.176Z,21.90
2022-08-17T11:52:44.465Z,21.90
2022-08-17T11:55:53.366Z,21.90
2022-08-17T11:58:37.890Z,21.90
2022-08-17T12:01:07.593Z,21.80
2022-08-17T12:03:55.280Z,21.80
2022-08-17T12:06:34.495Z,21.90
2022-08-17T12:09:10.269Z,21.90
2022-08-17T12:12:10.976Z,21.90
2022-08-17T12:15:08.332Z,21.90
2022-08-17T12:17:39.131Z,21.90
2022-08-17T12:20:15.602Z,21.90
2022-08-17T12:22:53.868Z,21.90
2022-08-17T12:25:27.137Z,21.90
2022-08-17T12:28:06.014Z,21.90
2022-08-17T12:30:36.505Z,21.90
2022-08-17T12:33:04.902Z,21.90
2022-08-17T12:35:36.083Z,21.90
2022-08-17T12:38:26.823Z,21.90
2022-08-17T12:40:58.269Z,21.90
2022-08-17T12:43:30.443Z,21.90
2022-08-17T12:46:13.363Z,21.90
2022-08-17T12:48:59.637Z,21.80
2022-08-17T12:51:29.467Z,21.80
2022-08-17T12:53:58.807Z,21.80
2022-08-17T12:56:26.876Z,21.80
2022-08-17T12:58:56.730Z,21.90
2022-08-17T13:01:26.071Z,21.80
2022-08-17T13:03:59.869Z,21.80
2022-08-17T13:06:31.472Z,21.80
2022-08-17T13:09:10.387Z,21.80
2022-08-17T13:11:47.978Z,21.80
2022-08-17T13:14:18.397Z,21.80
2022-08-17T13:16:52.324Z,21.80
2022-08-17T13:19:40.185Z,21.70
2022-08-17T13:22:12.821Z,21.70
2022-08-17T13:24:54.436Z,21.80
2022-08-17T13:27:25.648Z,21.80
2022-08-17T13:29:57.342Z,21.80
2022-08-17T13:32:37.084Z,21.80
2022-08-17T13:35:38.985Z,21.80
2022-08-17T13:38:10.208Z,21.90
2022-08-17T13:40:44.020Z,21.80
2022-08-17T13:43:13.070Z,21.90
2022-08-17T13:45:52.387Z,21.90
2022-08-17T13:48:27.285Z,21.90
2022-08-17T13:51:14.590Z,22.00
2022-08-17T13:54:01.439Z,22.00
2022-08-17T13:56:40.396Z,22.00
2022-08-17T13:59:11.438Z,22.00
2022-08-17T14:01:41.734Z,22.10
2022-08-17T14:04:12.170Z,22.10
2022-08-17T14:06:52.794Z,22.10
2022-08-17T14:09:24.110Z,22.20
2022-08-17T14:11:55.112Z,22.20
2022-08-17T14:14:24.438Z,22.20
2022-08-17T14:16:53.018Z,22.20
2022-08-17T14:19:22.891Z,22.20
2022-08-17T14:21:58.892Z,22.30
2022-08-17T14:24:29.260Z,22.30
2022-08-17T14:26:59.917Z,22.30
2022-08-17T14:29:29.668Z,22.30
2022-08-17T14:31:59.361Z,22.30
2022-08-17T14:34:27.419Z,22.30
2022-08-17T14:36:56.953Z,22.30
2022-08-17T14:39:25.238Z,22.30
2022-08-17T14:41:53.406Z,22.30
2022-08-17T14:44:22.711Z,22.20
2022-08-17T14:46:51.136Z,22.30
2022-08-17T14:49:19.748Z,22.30
2022-08-17T14:51:48.659Z,22.30
2022-08-17T14:54:32.599Z,22.30
2022-08-17T14:57:25.128Z,22.30
2022-08-17T14:59:55.237Z,22.30
2022-08-17T15:02:29.847Z,22.20
2022-08-17T15:05:02.488Z,22.20
2022-08-17T15:07:31.372Z,22.20
2022-08-17T15:10:01.384Z,22.20
2022-08-17T15:12:34.245Z,22.20
2022-08-17T15:15:05.620Z,22.20
2022-08-17T15:17:45.098Z,22.10
2022-08-17T15:20:17.032Z,22.10
2022-08-17T15:22:46.214Z,22.10
2022-08-17T15:25:15.186Z,22.10
2022-08-17T15:27:44.026Z,22.10
2022-08-17T15:30:14.042Z,22.10
2022-08-17T15:32:46.921Z,22.10
2022-08-17T15:35:28.341Z,22.10
2022-08-17T15:37:58.144Z,22.10
2022-08-17T15:40:26.218Z,22.00
2022-08-17T15:42:54.197Z,22.00
2022-08-17T15:45:27.034Z,22.00
2022-08-17T15:47:55.213Z,22.00
2022-08-17T15:50:23.189Z,22.00
2022-08-17T15:52:58.017Z,22.00
2022-08-17T15:55:27.542Z,21.90
2022-08-17T15:57:55.816Z,21.90
2022-08-17T16:00:28.506Z,21.80
2022-08-17T16:03:45.811Z,21.80
2022-08-17T16:05:46.339Z,21.90
2022-08-17T16:08:20.146Z,21.80
2022-08-17T16:10:49.342Z,21.80
2022-08-17T16:13:18.291Z,21.80
2022-08-17T16:15:57.264Z,21.70
2022-08-17T16:18:31.068Z,21.70
2022-08-17T16:21:19.688Z,21.70
2022-08-17T16:23:48.015Z,21.70
2022-08-17T16:26:16.177Z,21.70
2022-08-17T16:28:44.139Z,21.70
2022-08-17T16:31:14.386Z,21.60
2022-08-17T16:33:43.099Z,21.60
2022-08-17T16:36:31.127Z,21.60
2022-08-17T16:38:59.404Z,21.60
2022-08-17T16:41:45.502Z,21.60
2022-08-17T16:44:15.456Z,21.60
2022-08-17T16:46:46.199Z,21.60
2022-08-17T16:49:36.119Z,21.60
2022-08-17T16:52:03.947Z,21.60
2022-08-17T16:54:32.584Z,21.60
2022-08-17T16:57:00.766Z,21.60
2022-08-17T16:59:30.561Z,21.50
2022-08-17T17:02:05.025Z,21.50
2022-08-17T17:04:37.854Z,21.60
2022-08-17T17:07:15.910Z,21.50
2022-08-17T17:09:46.731Z,21.50
2022-08-17T17:12:19.874Z,21.50
2022-08-17T17:15:09.539Z,21.50
2022-08-17T17:17:40.250Z,21.50
2022-08-17T17:20:12.539Z,21.50
2022-08-17T17:22:48.154Z,21.50
2022-08-17T17:25:24.227Z,21.50
2022-08-17T17:28:01.894Z,21.50
2022-08-17T17:30:37.152Z,21.50
2022-08-17T17:33:10.441Z,21.50
2022-08-17T17:35:47.812Z,21.50
2022-08-17T17:38:22.171Z,21.50
2022-08-17T17:40:54.554Z,21.50
2022-08-17T17:43:40.223Z,21.50
2022-08-17T17:46:27.797Z,21.40
2022-08-17T17:48:58.454Z,21.40
2022-08-17T17:52:09.201Z,21.40
2022-08-17T17:54:34.870Z,21.40
2022-08-17T17:57:11.097Z,21.40
2022-08-17T17:59:50.993Z,21.40
2022-08-17T18:02:51.314Z,21.40
2022-08-17T18:05:44.397Z,21.40
2022-08-17T18:08:32.298Z,21.40
2022-08-17T18:11:11.369Z,21.40
2022-08-17T18:13:56.387Z,21.40
2022-08-17T18:16:24.442Z,21.40
2022-08-17T18:18:54.251Z,21.30
2022-08-17T18:21:27.983Z,21.40
2022-08-17T18:23:58.052Z,21.30
2022-08-17T18:26:50.979Z,21.30
2022-08-17T18:29:31.467Z,21.30
2022-08-17T18:32:38.019Z,21.30
2022-08-17T18:35:35.054Z,21.30
2022-08-17T18:38:23.460Z,21.30
2022-08-17T18:41:03.874Z,21.30
2022-08-17T18:43:44.064Z,21.20
2022-08-17T18:46:29.679Z,21.20
2022-08-17T18:49:02.200Z,21.20
2022-08-17T18:51:41.016Z,21.20
2022-08-17T18:54:21.409Z,21.20
2022-08-17T18:57:02.101Z,21.20
2022-08-17T18:59:40.873Z,21.20
2022-08-17T19:02:44.804Z,21.20
2022-08-17T19:05:28.941Z,21.20
2022-08-17T19:08:18.408Z,21.20
2022-08-17T19:10:53.311Z,21.10
2022-08-17T19:13:29.086Z,21.10
2022-08-17T19:16:14.671Z,21.10
2022-08-17T19:18:47.792Z,21.10
2022-08-17T19:21:22.299Z,21.10
2022-08-17T19:23:54.945Z,21.10
2022-08-17T19:26:54.369Z,21.10
2022-08-17T19:29:25.711Z,21.10
2022-08-17T19:31:55.255Z,21.10
2022-08-17T19:34:33.223Z,21.10
2022-08-17T19:37:09.318Z,21.10
2022-08-17T19:39:48.191Z,21.10
2022-08-17T19:42:31.742Z,21.10
2022-08-17T19:45:07.263Z,21.10
2022-08-17T19:47:54.903Z,21.10
2022-08-17T19:50:41.339Z,21.00
2022-08-17T19:53:21.972Z,21.00
2022-08-17T19:55:57.793Z,21.00
2022-08-17T19:58:42.437Z,21.00
2022-08-17T20:01:20.176Z,21.00
2022-08-17T20:03:56.730Z,21.00
2022-08-17T20:06:25.987Z,20.90
2022-08-17T20:09:02.394Z,20.90
2022-08-17T20:11:38.727Z,20.90
2022-08-17T20:14:12.954Z,20.90
2022-08-17T20:16:41.265Z,20.90
2022-08-17T20:19:18.019Z,20.90
2022-08-17T20:21:53.319Z,20.90
2022-08-17T20:24:26.170Z,20.90
2022-08-17T20:26:58.865Z,20.80
2022-08-17T20:29:40.340Z,20.80
2022-08-17T20:32:25.670Z,20.80
2022-08-17T20:35:06.923Z,20.80
2022-08-17T20:37:36.879Z,20.80
2022-08-17T20:40:33.897Z,20.80
2022-08-17T20:43:40.282Z,20.80
2022-08-17T20:46:20.896Z,20.90
2022-08-17T20:48:53.398Z,20.80
2022-08-17T20:51:29.755Z,20.80
2022-08-17T20:54:05.558Z,20.80
2022-08-17T20:56:56.421Z,20.80
2022-08-17T20:59:59.834Z,20.80
